Senior Moments — MHQA6 — position and weather

sailwx.info

Track history (hours):
 
Tides and Currents Weather Stations Pressure Air Temp Water Temp Dewpoint Dewpoint Depression Visibility Wind Speed Wind Dir Waves Ship Positions

Senior Moments

Last reported at 2017-Aug-27 12:05 UTC. Time now 2017-Nov-19 16:20 UTC.
Position N 50°46' W 001°32'.
Warning: this ship's position is months out of date.

Length 14 m.

Type: Pleasure craft. MMSI: 235025682.

Date/timePositionNaut miles runAvg speedWind from/ knotsBaromVisibWave heightAir tempDewpointWater temp
2017-Aug-27 12:05N 50°46' W 001°32'0 0.0
2017-Aug-27 11:59N 50°46' W 001°32'  
2017-Aug-24 08:54N 49°49' W 002°03'411.0
2017-Aug-24 08:30N 49°45' W 002°07'1710.7
2017-Aug-24 06:55N 49°32' W 002°24'7 0.3
2017-Aug-23 03:12N 49°27' W 002°32'0 0.0
2017-Aug-23 02:42N 49°27' W 002°32'0 0.0
2017-Aug-22 19:24N 49°27' W 002°32'0 0.0
2017-Aug-22 18:54N 49°27' W 002°32'0 0.0
2017-Aug-22 18:30N 49°27' W 002°32'0 0.0
2017-Aug-22 17:54N 49°27' W 002°32'0 0.0
2017-Aug-22 17:24N 49°27' W 002°32'0 0.0
2017-Aug-22 16:42N 49°27' W 002°32'0 0.0
2017-Aug-22 16:27N 49°27' W 002°32'0 0.0
2017-Aug-22 15:54N 49°27' W 002°32'0 0.0
2017-Aug-22 15:18N 49°27' W 002°32'0 0.0
2017-Aug-22 14:13N 49°27' W 002°32'0 0.0
2017-Aug-22 14:00N 49°27' W 002°32'0 0.0
2017-Aug-22 13:27N 49°27' W 002°32'0 0.0
2017-Aug-22 13:00N 49°27' W 002°32'0 0.0
2017-Aug-22 12:31N 49°27' W 002°32'0 0.0
2017-Aug-22 11:57N 49°27' W 002°32'0 0.0
2017-Aug-22 11:30N 49°27' W 002°32'0 0.0
2017-Aug-22 10:54N 49°27' W 002°32'0 0.0
2017-Aug-22 10:10N 49°27' W 002°32'0 0.0
2017-Aug-22 09:49N 49°27' W 002°32'0 0.0
2017-Aug-22 09:28N 49°27' W 002°32'0 0.0
2017-Aug-22 09:01N 49°27' W 002°32'0 0.0
2017-Aug-22 07:22N 49°27' W 002°32'0 0.0
2017-Aug-22 07:00N 49°27' W 002°32'0 0.0
2017-Aug-22 06:28N 49°27' W 002°32'0 0.0
2017-Aug-21 19:31N 49°27' W 002°32'0 0.0
2017-Aug-21 19:28N 49°27' W 002°32'0 0.0
2017-Aug-21 18:58N 49°27' W 002°32'0 0.1
2017-Aug-21 15:49N 49°27' W 002°32'1 3.5
2017-Aug-21 15:27N 49°26' W 002°31'4 8.1
2017-Aug-21 14:54N 49°22' W 002°35'94 3.4
2017-Aug-20 11:10N 48°38' W 004°40'1 8.1
2017-Aug-20 10:59N 48°37' W 004°42'4 8.5
2017-Aug-20 10:30N 48°35' W 004°47'4 8.6
2017-Aug-20 10:00N 48°31' W 004°50'4 7.9
2017-Aug-20 09:30N 48°27' W 004°50'4 7.4
2017-Aug-20 08:58N 48°23' W 004°49'4 6.7
2017-Aug-20 08:25N 48°19' W 004°47'3 8.2
2017-Aug-20 08:00N 48°18' W 004°42'4 8.4
2017-Aug-20 07:30N 48°17' W 004°36'1 1.6
2017-Aug-20 07:00N 48°17' W 004°35'0 0.0
2017-Aug-20 06:30N 48°17' W 004°35'0 0.0
2017-Aug-20 06:00N 48°17' W 004°35'0 0.0
2017-Aug-20 05:30N 48°17' W 004°35'0 0.0
2017-Aug-20 05:00N 48°17' W 004°35'0 0.0
2017-Aug-20 04:30N 48°17' W 004°35'0 0.0
2017-Aug-20 04:00N 48°17' W 004°35'0 0.0
2017-Aug-20 03:30N 48°17' W 004°35'0 0.0
2017-Aug-20 03:00N 48°17' W 004°35'0 0.0
2017-Aug-20 02:30N 48°17' W 004°35'0 0.0
2017-Aug-20 02:00N 48°17' W 004°35'0 0.0
2017-Aug-20 01:30N 48°17' W 004°35'0 0.0
2017-Aug-20 01:00N 48°17' W 004°35'0 0.0
2017-Aug-20 00:30N 48°17' W 004°35'0 0.0
2017-Aug-20 00:00N 48°17' W 004°35'0 0.0
2017-Aug-19 23:30N 48°17' W 004°35'0 0.0
2017-Aug-19 23:00N 48°17' W 004°35'0 0.0
2017-Aug-19 22:30N 48°17' W 004°35'0 0.0
2017-Aug-19 22:00N 48°17' W 004°35'0 0.0
2017-Aug-19 21:30N 48°17' W 004°35'0 0.0
2017-Aug-19 21:00N 48°17' W 004°35'0 0.0
2017-Aug-19 20:30N 48°17' W 004°35'0 0.0
2017-Aug-19 20:00N 48°17' W 004°35'0 0.0
2017-Aug-19 19:30N 48°17' W 004°35'0 0.0
2017-Aug-19 19:00N 48°17' W 004°35'0 0.0
2017-Aug-19 18:30N 48°17' W 004°35'0 0.0
2017-Aug-19 18:00N 48°17' W 004°35'0 0.0
2017-Aug-19 17:30N 48°17' W 004°35'0 0.0
2017-Aug-19 17:00N 48°17' W 004°35'0 0.0
2017-Aug-19 16:30N 48°17' W 004°35'0 0.0
2017-Aug-19 16:00N 48°17' W 004°35'0 0.0
2017-Aug-19 15:30N 48°17' W 004°35'0 0.0
2017-Aug-19 15:00N 48°17' W 004°35'0 0.0
2017-Aug-19 14:00N 48°17' W 004°35'0 0.0
2017-Aug-19 13:30N 48°17' W 004°35'0 0.0
2017-Aug-19 13:00N 48°17' W 004°35'0 0.0
2017-Aug-19 12:30N 48°17' W 004°35'0 0.0
2017-Aug-19 12:00N 48°17' W 004°35'0 0.0
2017-Aug-19 11:30N 48°17' W 004°35'0 0.0
2017-Aug-19 11:00N 48°17' W 004°35'0 0.0
2017-Aug-19 10:30N 48°17' W 004°35'0 0.0
2017-Aug-19 10:00N 48°17' W 004°35'0 0.0
2017-Aug-19 09:30N 48°17' W 004°35'0 0.0
2017-Aug-19 09:00N 48°17' W 004°35'0 0.0
2017-Aug-19 08:30N 48°17' W 004°35'0 0.0
2017-Aug-19 08:00N 48°17' W 004°35'0 0.0
2017-Aug-19 07:30N 48°17' W 004°35'0 0.0
2017-Aug-19 07:00N 48°17' W 004°35'0 0.0
2017-Aug-19 06:30N 48°17' W 004°35'0 0.0
2017-Aug-19 06:00N 48°17' W 004°35'0 0.0
2017-Aug-19 05:30N 48°17' W 004°35'0 0.0
2017-Aug-19 05:00N 48°17' W 004°35'0 0.0
2017-Aug-19 04:30N 48°17' W 004°35'0 0.0
2017-Aug-19 04:00N 48°17' W 004°35'0 0.0
2017-Aug-19 03:30N 48°17' W 004°35'0 0.0
2017-Aug-19 03:00N 48°17' W 004°35'0 0.0
2017-Aug-19 02:30N 48°17' W 004°35'0 0.0
2017-Aug-19 02:00N 48°17' W 004°35'0 0.0
2017-Aug-19 01:30N 48°17' W 004°35'0 0.0
2017-Aug-19 01:00N 48°17' W 004°35'0 0.0
2017-Aug-19 00:30N 48°17' W 004°35'0 0.0
2017-Aug-19 00:00N 48°17' W 004°35'0 0.0
2017-Aug-18 23:30N 48°17' W 004°35'0 0.0
2017-Aug-18 23:00N 48°17' W 004°35'0 0.0
2017-Aug-18 22:30N 48°17' W 004°35'0 0.0
2017-Aug-18 22:00N 48°17' W 004°35'0 0.0
2017-Aug-18 21:30N 48°17' W 004°35'0 0.0
2017-Aug-18 21:00N 48°17' W 004°35'0 0.0
2017-Aug-18 20:30N 48°17' W 004°35'0 0.0
2017-Aug-18 20:00N 48°17' W 004°35'0 0.0
2017-Aug-18 19:30N 48°17' W 004°35'0 0.0
2017-Aug-18 19:00N 48°17' W 004°35'0 0.0
2017-Aug-18 18:30N 48°17' W 004°35'0 0.0
2017-Aug-18 18:00N 48°17' W 004°35'0 0.0
2017-Aug-18 17:30N 48°17' W 004°35'0 0.0
2017-Aug-18 17:00N 48°17' W 004°35'0 0.0
2017-Aug-18 16:30N 48°17' W 004°35'0 0.0
2017-Aug-18 16:00N 48°17' W 004°35'0 0.0
2017-Aug-18 15:30N 48°17' W 004°35'0 0.0
2017-Aug-18 15:00N 48°17' W 004°35'0 0.0
2017-Aug-18 14:00N 48°17' W 004°35'0 0.0
2017-Aug-18 13:30N 48°17' W 004°35'0 0.0
2017-Aug-18 13:00N 48°17' W 004°35'0 0.0
2017-Aug-18 12:30N 48°17' W 004°35'0 0.0
2017-Aug-18 12:00N 48°17' W 004°35'0 0.0
2017-Aug-18 11:30N 48°17' W 004°35'0 0.0
2017-Aug-18 11:00N 48°17' W 004°35'0 0.0
2017-Aug-18 10:30N 48°17' W 004°35'0 0.0
2017-Aug-18 10:00N 48°17' W 004°35'0 0.0
2017-Aug-18 09:30N 48°17' W 004°35'0 0.0
2017-Aug-18 09:00N 48°17' W 004°35'0 0.0
2017-Aug-18 08:30N 48°17' W 004°35'0 0.0
2017-Aug-18 08:00N 48°17' W 004°35'0 0.0
2017-Aug-18 07:30N 48°17' W 004°35'0 0.0
2017-Aug-18 07:00N 48°17' W 004°35'0 0.0
2017-Aug-18 06:30N 48°17' W 004°35'0 0.0
2017-Aug-18 06:00N 48°17' W 004°35'0 0.0
2017-Aug-18 05:30N 48°17' W 004°35'0 0.0
2017-Aug-18 05:00N 48°17' W 004°35'0 0.0
2017-Aug-18 04:30N 48°17' W 004°35'0 0.0
2017-Aug-18 04:00N 48°17' W 004°35'0 0.0
2017-Aug-18 03:30N 48°17' W 004°35'0 0.0
2017-Aug-18 03:00N 48°17' W 004°35'0 0.0
2017-Aug-18 02:30N 48°17' W 004°35'0 0.0
2017-Aug-18 02:00N 48°17' W 004°35'0 0.0
2017-Aug-18 01:30N 48°17' W 004°35'0 0.0
2017-Aug-18 01:00N 48°17' W 004°35'0 0.0
2017-Aug-18 00:30N 48°17' W 004°35'0 0.0
2017-Aug-18 00:00N 48°17' W 004°35'0 0.0
2017-Aug-17 23:30N 48°17' W 004°35'0 0.0
2017-Aug-17 23:00N 48°17' W 004°35'0 0.0
2017-Aug-17 22:30N 48°17' W 004°35'0 0.0
2017-Aug-17 22:00N 48°17' W 004°35'0 0.0
2017-Aug-17 21:30N 48°17' W 004°35'0 0.0
2017-Aug-17 21:00N 48°17' W 004°35'0 0.0
2017-Aug-17 20:30N 48°17' W 004°35'0 0.0
2017-Aug-17 20:00N 48°17' W 004°35'0 0.0
2017-Aug-17 19:30N 48°17' W 004°35'0 0.0
2017-Aug-17 19:00N 48°17' W 004°35'0 0.0
2017-Aug-17 18:30N 48°17' W 004°35'0 0.0
2017-Aug-17 18:00N 48°17' W 004°35'0 0.0
2017-Aug-17 17:30N 48°17' W 004°35'0 0.0
2017-Aug-17 17:00N 48°17' W 004°35'0 0.0
2017-Aug-17 16:30N 48°17' W 004°35'0 0.0
2017-Aug-17 16:00N 48°17' W 004°35'0 0.0
2017-Aug-17 15:30N 48°17' W 004°35'0 0.0
2017-Aug-17 15:00N 48°17' W 004°35'0 0.0
2017-Aug-17 14:30N 48°17' W 004°35'0 0.0
2017-Aug-17 14:00N 48°17' W 004°35'0 0.1
2017-Aug-17 13:28N 48°17' W 004°35'0 0.1
2017-Aug-17 12:58N 48°17' W 004°35'0 0.0
2017-Aug-17 12:29N 48°17' W 004°35'  
Track history (hours):
 
Tides and Currents Weather Stations Pressure Air Temp Water Temp Dewpoint Dewpoint Depression Visibility Wind Speed Wind Dir Waves Ship Positions

Senior Moments

Last reported at 2017-Aug-27 12:05 UTC. Time now 2017-Nov-19 16:20 UTC.
Position N 50°46' W 001°32'.
Warning: this ship's position is months out of date.

Length 14 m.

Type: Pleasure craft. MMSI: 235025682.

Date/timePositionNaut miles runAvg speedWind from/ knotsBaromVisibWave heightAir tempDewpointWater temp
2017-Aug-27 12:05N 50°46' W 001°32'0 0.0
2017-Aug-27 11:59N 50°46' W 001°32'  
2017-Aug-24 08:54N 49°49' W 002°03'411.0
2017-Aug-24 08:30N 49°45' W 002°07'1710.7
2017-Aug-24 06:55N 49°32' W 002°24'7 0.3
2017-Aug-23 03:12N 49°27' W 002°32'0 0.0
2017-Aug-23 02:42N 49°27' W 002°32'0 0.0
2017-Aug-22 19:24N 49°27' W 002°32'0 0.0
2017-Aug-22 18:54N 49°27' W 002°32'0 0.0
2017-Aug-22 18:30N 49°27' W 002°32'0 0.0
2017-Aug-22 17:54N 49°27' W 002°32'0 0.0
2017-Aug-22 17:24N 49°27' W 002°32'0 0.0
2017-Aug-22 16:42N 49°27' W 002°32'0 0.0
2017-Aug-22 16:27N 49°27' W 002°32'0 0.0
2017-Aug-22 15:54N 49°27' W 002°32'0 0.0
2017-Aug-22 15:18N 49°27' W 002°32'0 0.0
2017-Aug-22 14:13N 49°27' W 002°32'0 0.0
2017-Aug-22 14:00N 49°27' W 002°32'0 0.0
2017-Aug-22 13:27N 49°27' W 002°32'0 0.0
2017-Aug-22 13:00N 49°27' W 002°32'0 0.0
2017-Aug-22 12:31N 49°27' W 002°32'0 0.0
2017-Aug-22 11:57N 49°27' W 002°32'0 0.0
2017-Aug-22 11:30N 49°27' W 002°32'0 0.0
2017-Aug-22 10:54N 49°27' W 002°32'0 0.0
2017-Aug-22 10:10N 49°27' W 002°32'0 0.0
2017-Aug-22 09:49N 49°27' W 002°32'0 0.0
2017-Aug-22 09:28N 49°27' W 002°32'0 0.0
2017-Aug-22 09:01N 49°27' W 002°32'0 0.0
2017-Aug-22 07:22N 49°27' W 002°32'0 0.0
2017-Aug-22 07:00N 49°27' W 002°32'0 0.0
2017-Aug-22 06:28N 49°27' W 002°32'0 0.0
2017-Aug-21 19:31N 49°27' W 002°32'0 0.0
2017-Aug-21 19:28N 49°27' W 002°32'0 0.0
2017-Aug-21 18:58N 49°27' W 002°32'0 0.1
2017-Aug-21 15:49N 49°27' W 002°32'1 3.5
2017-Aug-21 15:27N 49°26' W 002°31'4 8.1
2017-Aug-21 14:54N 49°22' W 002°35'94 3.4
2017-Aug-20 11:10N 48°38' W 004°40'1 8.1
2017-Aug-20 10:59N 48°37' W 004°42'4 8.5
2017-Aug-20 10:30N 48°35' W 004°47'4 8.6
2017-Aug-20 10:00N 48°31' W 004°50'4 7.9
2017-Aug-20 09:30N 48°27' W 004°50'4 7.4
2017-Aug-20 08:58N 48°23' W 004°49'4 6.7
2017-Aug-20 08:25N 48°19' W 004°47'3 8.2
2017-Aug-20 08:00N 48°18' W 004°42'4 8.4
2017-Aug-20 07:30N 48°17' W 004°36'1 1.6
2017-Aug-20 07:00N 48°17' W 004°35'0 0.0
2017-Aug-20 06:30N 48°17' W 004°35'0 0.0
2017-Aug-20 06:00N 48°17' W 004°35'0 0.0
2017-Aug-20 05:30N 48°17' W 004°35'0 0.0
2017-Aug-20 05:00N 48°17' W 004°35'0 0.0
2017-Aug-20 04:30N 48°17' W 004°35'0 0.0
2017-Aug-20 04:00N 48°17' W 004°35'0 0.0
2017-Aug-20 03:30N 48°17' W 004°35'0 0.0
2017-Aug-20 03:00N 48°17' W 004°35'0 0.0
2017-Aug-20 02:30N 48°17' W 004°35'0 0.0
2017-Aug-20 02:00N 48°17' W 004°35'0 0.0
2017-Aug-20 01:30N 48°17' W 004°35'0 0.0
2017-Aug-20 01:00N 48°17' W 004°35'0 0.0
2017-Aug-20 00:30N 48°17' W 004°35'0 0.0
2017-Aug-20 00:00N 48°17' W 004°35'0 0.0
2017-Aug-19 23:30N 48°17' W 004°35'0 0.0
2017-Aug-19 23:00N 48°17' W 004°35'0 0.0
2017-Aug-19 22:30N 48°17' W 004°35'0 0.0
2017-Aug-19 22:00N 48°17' W 004°35'0 0.0
2017-Aug-19 21:30N 48°17' W 004°35'0 0.0
2017-Aug-19 21:00N 48°17' W 004°35'0 0.0
2017-Aug-19 20:30N 48°17' W 004°35'0 0.0
2017-Aug-19 20:00N 48°17' W 004°35'0 0.0
2017-Aug-19 19:30N 48°17' W 004°35'0 0.0
2017-Aug-19 19:00N 48°17' W 004°35'0 0.0
2017-Aug-19 18:30N 48°17' W 004°35'0 0.0
2017-Aug-19 18:00N 48°17' W 004°35'0 0.0
2017-Aug-19 17:30N 48°17' W 004°35'0 0.0
2017-Aug-19 17:00N 48°17' W 004°35'0 0.0
2017-Aug-19 16:30N 48°17' W 004°35'0 0.0
2017-Aug-19 16:00N 48°17' W 004°35'0 0.0
2017-Aug-19 15:30N 48°17' W 004°35'0 0.0
2017-Aug-19 15:00N 48°17' W 004°35'0 0.0
2017-Aug-19 14:00N 48°17' W 004°35'0 0.0
2017-Aug-19 13:30N 48°17' W 004°35'0 0.0
2017-Aug-19 13:00N 48°17' W 004°35'0 0.0
2017-Aug-19 12:30N 48°17' W 004°35'0 0.0
2017-Aug-19 12:00N 48°17' W 004°35'0 0.0
2017-Aug-19 11:30N 48°17' W 004°35'0 0.0
2017-Aug-19 11:00N 48°17' W 004°35'0 0.0
2017-Aug-19 10:30N 48°17' W 004°35'0 0.0
2017-Aug-19 10:00N 48°17' W 004°35'0 0.0
2017-Aug-19 09:30N 48°17' W 004°35'0 0.0
2017-Aug-19 09:00N 48°17' W 004°35'0 0.0
2017-Aug-19 08:30N 48°17' W 004°35'0 0.0
2017-Aug-19 08:00N 48°17' W 004°35'0 0.0
2017-Aug-19 07:30N 48°17' W 004°35'0 0.0
2017-Aug-19 07:00N 48°17' W 004°35'0 0.0
2017-Aug-19 06:30N 48°17' W 004°35'0 0.0
2017-Aug-19 06:00N 48°17' W 004°35'0 0.0
2017-Aug-19 05:30N 48°17' W 004°35'0 0.0
2017-Aug-19 05:00N 48°17' W 004°35'0 0.0
2017-Aug-19 04:30N 48°17' W 004°35'0 0.0
2017-Aug-19 04:00N 48°17' W 004°35'0 0.0
2017-Aug-19 03:30N 48°17' W 004°35'0 0.0
2017-Aug-19 03:00N 48°17' W 004°35'0 0.0
2017-Aug-19 02:30N 48°17' W 004°35'0 0.0
2017-Aug-19 02:00N 48°17' W 004°35'0 0.0
2017-Aug-19 01:30N 48°17' W 004°35'0 0.0
2017-Aug-19 01:00N 48°17' W 004°35'0 0.0
2017-Aug-19 00:30N 48°17' W 004°35'0 0.0
2017-Aug-19 00:00N 48°17' W 004°35'0 0.0
2017-Aug-18 23:30N 48°17' W 004°35'0 0.0
2017-Aug-18 23:00N 48°17' W 004°35'0 0.0
2017-Aug-18 22:30N 48°17' W 004°35'0 0.0
2017-Aug-18 22:00N 48°17' W 004°35'0 0.0
2017-Aug-18 21:30N 48°17' W 004°35'0 0.0
2017-Aug-18 21:00N 48°17' W 004°35'0 0.0
2017-Aug-18 20:30N 48°17' W 004°35'0 0.0
2017-Aug-18 20:00N 48°17' W 004°35'0 0.0
2017-Aug-18 19:30N 48°17' W 004°35'0 0.0
2017-Aug-18 19:00N 48°17' W 004°35'0 0.0
2017-Aug-18 18:30N 48°17' W 004°35'0 0.0
2017-Aug-18 18:00N 48°17' W 004°35'0 0.0
2017-Aug-18 17:30N 48°17' W 004°35'0 0.0
2017-Aug-18 17:00N 48°17' W 004°35'0 0.0
2017-Aug-18 16:30N 48°17' W 004°35'0 0.0
2017-Aug-18 16:00N 48°17' W 004°35'0 0.0
2017-Aug-18 15:30N 48°17' W 004°35'0 0.0
2017-Aug-18 15:00N 48°17' W 004°35'0 0.0
2017-Aug-18 14:00N 48°17' W 004°35'0 0.0
2017-Aug-18 13:30N 48°17' W 004°35'0 0.0
2017-Aug-18 13:00N 48°17' W 004°35'0 0.0
2017-Aug-18 12:30N 48°17' W 004°35'0 0.0
2017-Aug-18 12:00N 48°17' W 004°35'0 0.0
2017-Aug-18 11:30N 48°17' W 004°35'0 0.0
2017-Aug-18 11:00N 48°17' W 004°35'0 0.0
2017-Aug-18 10:30N 48°17' W 004°35'0 0.0
2017-Aug-18 10:00N 48°17' W 004°35'0 0.0
2017-Aug-18 09:30N 48°17' W 004°35'0 0.0
2017-Aug-18 09:00N 48°17' W 004°35'0 0.0
2017-Aug-18 08:30N 48°17' W 004°35'0 0.0
2017-Aug-18 08:00N 48°17' W 004°35'0 0.0
2017-Aug-18 07:30N 48°17' W 004°35'0 0.0
2017-Aug-18 07:00N 48°17' W 004°35'0 0.0
2017-Aug-18 06:30N 48°17' W 004°35'0 0.0
2017-Aug-18 06:00N 48°17' W 004°35'0 0.0
2017-Aug-18 05:30N 48°17' W 004°35'0 0.0
2017-Aug-18 05:00N 48°17' W 004°35'0 0.0
2017-Aug-18 04:30N 48°17' W 004°35'0 0.0
2017-Aug-18 04:00N 48°17' W 004°35'0 0.0
2017-Aug-18 03:30N 48°17' W 004°35'0 0.0
2017-Aug-18 03:00N 48°17' W 004°35'0 0.0
2017-Aug-18 02:30N 48°17' W 004°35'0 0.0
2017-Aug-18 02:00N 48°17' W 004°35'0 0.0
2017-Aug-18 01:30N 48°17' W 004°35'0 0.0
2017-Aug-18 01:00N 48°17' W 004°35'0 0.0
2017-Aug-18 00:30N 48°17' W 004°35'0 0.0
2017-Aug-18 00:00N 48°17' W 004°35'0 0.0
2017-Aug-17 23:30N 48°17' W 004°35'0 0.0
2017-Aug-17 23:00N 48°17' W 004°35'0 0.0
2017-Aug-17 22:30N 48°17' W 004°35'0 0.0
2017-Aug-17 22:00N 48°17' W 004°35'0 0.0
2017-Aug-17 21:30N 48°17' W 004°35'0 0.0
2017-Aug-17 21:00N 48°17' W 004°35'0 0.0
2017-Aug-17 20:30N 48°17' W 004°35'0 0.0
2017-Aug-17 20:00N 48°17' W 004°35'0 0.0
2017-Aug-17 19:30N 48°17' W 004°35'0 0.0
2017-Aug-17 19:00N 48°17' W 004°35'0 0.0
2017-Aug-17 18:30N 48°17' W 004°35'0 0.0
2017-Aug-17 18:00N 48°17' W 004°35'0 0.0
2017-Aug-17 17:30N 48°17' W 004°35'0 0.0
2017-Aug-17 17:00N 48°17' W 004°35'0 0.0
2017-Aug-17 16:30N 48°17' W 004°35'0 0.0
2017-Aug-17 16:00N 48°17' W 004°35'0 0.0
2017-Aug-17 15:30N 48°17' W 004°35'0 0.0
2017-Aug-17 15:00N 48°17' W 004°35'0 0.0
2017-Aug-17 14:30N 48°17' W 004°35'0 0.0
2017-Aug-17 14:00N 48°17' W 004°35'0 0.1
2017-Aug-17 13:28N 48°17' W 004°35'0 0.1
2017-Aug-17 12:58N 48°17' W 004°35'0 0.0
2017-Aug-17 12:29N 48°17' W 004°35'  

Dump ship's entire track history